【UK '60s LP(stereo) DB ALL PART-2
■統合版 PART-2
このページは『Sgt.Pepper's Lonely herts Club Band』から『Let It Be』までを掲載しています。
『Please Please Me』から『A Collection Of Beatles Oldies』はPART-1をご参照ください。PART-1(PPM-OLD)へ

統合版 PART-2 (SGT〜LIB)
Key S1 S2 side A side B Center Sleeves Etc
ID CAT NO PRESSED (guess) MATRIX BRANCHNO MM STAMPER TAX CODE MATRIX BRANCHNO MM STAMPER TAX CODE Label Rim Copy Remark TAX (side) Jacket (logo size) Inner Note OW Entry Date
SG01 PCS7027 1967/06 YEX637 1 1 TR - YEX638 1 2 TM - Y&B GR AB KT(B) GL PSYCHE WIDE Jacket TM 2004/12/26
SG02 PCS7027 1967/12 YEX637 1 1 GMA - YEX638 1 4 GAL - Y&B GR AB - GL WENGPAF NARROW TS 2004/12/26
SG03 PCS7027 1967/12 YEX637 1 2 GOM - YEX638 1 1 GOA - Y&B GR AB KT(A) GL WGBPAF NON FLIP BACK TS 2004/12/26
SG04 PCS7027 1967/06 YEX637 1 1 GPL - YEX638 1 4 GRL - Y&B GR AB KT(A) GL PSYCHE inner PRINTED IN USA TS 2004/12/26
SG05 PCS7027 1967/06 XEX637 1 2 RAM - XEX638 1 2 PM - Y&B GR AB - GL PSYCHE WIDE Jacket MONO DISC! TS 2004/12/26
SG06 PCS7027 1967/06 YEX637 1 2 GRG - YEX638 1 4 GRT - Y&B GR AB KT(AB) GL PSYCHE NARROW MST! 2004/12/252005/01/02訂正
SG07 PCS7027 1967/06 YEX637 1 1 GA YEX638 1 3 PA Y&B GR AB GL PSYCHE NARROW YEEX 2004/12/26
SG08 PCS7027 1967/06 YEX637 1 2 GOH YEX638 1 2 GOO Y&B GR GL WGBPN NARROW YEEX 2004/12/26
SG09 PCS7027 1967/06 YEX637 1 3 MA - YEX638 1 4 OA - Y&B GR AB KT(A) GL PSYCHE NARROW non flipback MASA 2005/2/15
WT01A PCS7067 1969/01 YEX709 1 4 OH - YEX710 1 1 HL - DAAP AP AB - GL BLACk Label with "An EMI..." TM 2004/12/27
WT01B PCS7068 1969/01 YEX711 2 1 GDL - YEX712 1 4 GGH - DAAP AP AB - GL BLACk Label with "An EMI..."391007 TM 2004/12/27
WT02A PCS7067 1968/11 YEX709 1 1 GH - YEX710 1 1 RP - DAAP AP AB - GL × WITHOUT "An EMI~" TS 2004/12/26
WT02B PCS7068 1969/01 YEX711 1 3 GAL - YEX712 2 1 GRR - DAAP AP AB - GL × Label with "An EMI..." TS 2004/12/26
WT03A PCS7067 1969/01 YEX709 1 1 GGL - YEX710 1 3 AA - DAAP AP AB - GL BLACK Label with "An EMI..." TS 2004/12/26
WT03B PCS7068 1969/01 YEX711 1 5 TA - YEX712 1 2 GDR - DAAP AP AB KT(B) GL BLACK Label with "An EMI..." TS 2004/12/26
WT04A PCS7067 1969/01 YEX709 1 6?or G? LP - YEX710 2 1 GONorM? - DAAP AP AB - GL BLACK Label with "An EMI..." MST! 2004/12/25
WT04B PCS7068 1969/01 YEX711 1 3 GPR - YEX712 1 3 GANorM? - DAAP AP AB - GL BLACK Label with "An EMI..." (back cover has a small stamped"stereo"?) MST! 2004/12/25
WT05A P-PCS7067 1968/11 YEX709 1 2 G YEX710 1 2 LG? Y&BEXPORT GR GL BLACK Label with "An EMI..." YEEX 2004/12/26
WT05B P-PCS7067 1968/11 YEX711 1 3 RH YEX712 1 1 GCH Y&BEXPORT GR GL BLACK Label with "An EMI..." YEEX 2004/12/26
WT06A PCS7067 1968/11 YEX709 1 1 MR YEX710 1 1 RN? KT DAAP AP AB KT GL BLACK Without "An E.M.I. Recoring" YEEX 2004/12/26
WT06B PCS7068 1968/11 YEX711 1 1 HD YEX712 1 1 RP DAAP AP AB GL BLACK Without "An E.M.I. Recoring" YEEX 2004/12/26
WT07A PCS7067 1969/01 YEX709 1 2 HH YEX710 1 2 GRD? DAAP AP AB GL BLACK Label with "An EMI..." YEEX 2004/12/26
WT07B PCS7068 1969/01 YEX711 1 3 M YEX712 1 1 HN? DAAP AP AB GL BLACK Label with "An EMI..." YEEX 2004/12/26
WT08A PCS7067 1969/06 YEX709 1 2 GG YEX710 1 1 NP? DAAP AP GL WGBPN Label with "An EMI..." YEEX 2004/12/26
WT08B PCS7068 1969/06 YEX711 1 3 RH YEX712 2 3 GPR DAAP AP GL WGBPN Label with "An EMI..." YEEX 2004/12/26
WT09A PCS7067 1968/12 YEX709 1 3 TT - YEX710 1 4 HR - DAAP AP AB - GL BLACk Label with "An EMI..." MASA 2005/1/10
WT09B PCS7068 1968/12 YEX711 2 1 TT KT YEX712 1 1 GP - DAAP AP AB - GL BLACk Label with "An EMI… "0458659 MASA 2005/1/10
YE01 PCS7070 1969/06 YEX715 3 1 RH - YEX716 1 3 AT - DAAP AP - - GL WAPGBPN sleeve PATENT NO Label with "An EMI..." TM 2004/12/28
YE02 PCS7070 1969/06 YEX715 3 1 M - YEX716 1 4 MT - DAAP - - - GL BLACK back sleeve with small STEREO MST! 2004/12/25
YE03 PCS7070 1969/01 YEX715 1 1 H YEX716 1 1 R DAAP AP AB GL BLACK YEEX 2004/12/26
YE04 PCS7070 1969/01 YEX715 1 2/4 GL - YEX716 1 3 GP - DARK GREEN APPLE AP AB - NO CREDIT BLACK TS 2005/2/24
YE05 PCS7070 1969/09 YEX715 3 1 G - YEX716 1 3 AR - DARK GREEN APPLE AP - - GL WAPGBPN TS 2005/2/24
YE06 PCS7070 1969/01 YEX715 1 2/4 PG - YEX716 1 3 MM - DARK GREEN APPLE AP AB - GL BLACK TM 2006/6/24
YE07 PCS7070 1969/06 YEX715 3 2 GM - YEX716 1 3 GR - DAAP AP - - GL WAPGBPN sleeve PATENT NO Label with "An EMI..." TM 2006/6/24
AB01 PCS7088 1969/09 YEX749 2 1 RA - YEX750 1 3 HL - DAAP AP - - GL BLACk TM 2004/12/26 2005/01/03
AB02 PCS7088 1969/09 YEX749 2 6 GGD - YEX750 1 3 TG - DAAP AP - - GL BLACk TM 2004/12/26
AB03 PCS7088 1969/09 YEX749 2 4 ROM - YEX750 1 1 GPP - DAAP AP - - GL WENGPN SLEEVE PATENT No.1,125,555 TS 2004/12/26
AB04 PCS7088 1969/09 YEX749 2 6 PAG - YEX750 1 3 PMP - DAAP AP - - GL WAPGBPN IMPORTANT NOTICE SLEEVE PATENT Nos.11 255 55 TS 2004/12/26
AB05 PCS7088 1969/09 YEX749 2 1 HT - YEX750 1 7 LM - DAAP AP - - GL WENGPN SLEEVE PATENT No.1,125,555 without "Her Magesty" TS 2004/12/25
AB06 PCS7088 1969/09 YEX749 2 912? (9under12) OTH - YEX750 1 4 MPH - DAAP AP - - GL BLACk side-1 Label is "LET IT BE" TS 2004/12/25
AB09 PCS7088 1969/09 YEX749 2 5 66H - YEX750 1 7 6DH DAAP AP - - GL WAPGBPN LEFT APPLE MST! 2004/12/26
AB10 PCS7088 1970/01 YEX749 2 5 M(1.1に見える)?TG - YEX750 1 7 AHL DAAP AP - - GL WAPGBPN LEFT APPLE MST! 2004/12/26
AB11 PCS7088 1969/09 YEX749 2 1 P YEX750 1 1 PA DAAP AP GL WENGPAF Without "Her Magesty" YEEX 2004/12/26
AB12 PCS7088 1969/09 YEX749 2 6 GOM YEX750 1 6 MRM DAAP AP GL WGBPN With "Her Magesty" YEEX 2004/12/26
AB13 PPCS7088 1969/09 YEX749 2 1 RLP YEX750 1 1 RMT Y&BEXPORT GR GL WCHIMENGPNB YEEX 2004/12/26
AB14 PCS7088 1969/09 YEX749 2 6 LG? YEX750 1 7 IL? DAAP AP GL BLACK LEFT APPLE YEEX 2004/12/26
AB15 PCS7088 1969/09 YEX749 2 6 OLG YEX750 1 1 MMM DAAP AP GL WENGPAF LEFT APPLE TM 2005/6/22
AB16 PCS7088 1969/09 YEX749 2 1 RA - YEX750 1 2 RM - DAAP AP - - GL BLACK TS 2005/6/24
AB17 PCS7088 1970/01 YEX749 3U 1 H - YEX750 1 1 RPR - DAAP AP - - GL WENGPAF TS 2005/6/24
LI01 PCS7096 1970/11 YEX773 2U 17 HD - YEX774 2U 3 OP - DARK AP - - GL WENGPN Back sleeve has RED Apple TM 2004/12/26
LI02 PCS7096 1970/11 YEX773 2U 1 OO - YEX774 2U 2 HP - DAAP AP - - GL WENGPN Back sleeve has RED Apple TS 2004/12/26
LI03 PCS7096 1970/11 YEX773 2U 1 LH - YEX774 2U 4 TM - DAAP AP - - GL X Back sleeve has RED Apple TS 2004/12/26
LI04 PCS7096 1970/11 YEX773 2U 17? (1under7) R on X GR - YEX774 2U 5 AA - DAAP AP - - GL WGBPAF Back sleeve has RED Apple TS 2004/12/25
LI05 PCS7096 1970/11 YEX773 3U 23? (2under3) RDH - YEX774 3U 2 RAA - DAAP AP - - GL WAPGBPN RED APPLE EXPORT FOR NORTH EUROPE VERY RARE!? TS 2004/12/25
LI08 PCS7096 1970/05 YEX773 2U 1 GAD - YEX774 2U 2 GPM? - DAAP AP - - GL WAPGBPN BOX SET RED Apple MST! 2004/12/26
LI009 PPCS7096 1971/12 YEX773 3U 2/3 GOP - YEX774 3U 縦に24 GPO - DAAP AP - - GL WAPGBPN export back sleeve logo is white PARLOPHONE Label is PCS7096 MST! 2004/12/26
LI010 PCS7096 1970/11 YEX773 2U 1 P YEX774 2U 1 CDP? DAAP AP GL WGBPN Back sleeve has RED Apple YEEX 2004/12/26
LI011 PCS7096 1970/11 YEX773 2U 1 GAR YEX774 3U 4 GDO? DAAP AP GL WGBPN RED APPLE YEEX 2004/12/26
LI012 PCS7096 1971/12 YEX773 3U 4 GGO YEX774 2U 4 GD? DAAP AP GL WENGPN Back sleeve has GREEN APPLE YEEX 2004/12/26
LI013 PCS7096 1970/06 YEX773 2U 1 TM - YEX774 3U 2 RRD - DAAP AP - - GL WGBPN Back sleeve has GREEN APPLE TS 2005/3/27
LI014 PCS7096 1970/05 YEX773 2U 1/7 MH - YEX774 2U 3 MH - DAAP AP - - GL WCHPBGBPN Back sleeve has RED APPLE TS 2005/11/5


TS:ミスター・タコ星人さん、MST:MST!さん、YEEX:YEEXさん、MASA:MASAさんにご協力いただきました。
Copyrights tamachi All Rights Reserved 2004